sensor_id;sensor_type;location;lat;lon;timestamp;pressure;altitude;pressure_sealevel;temperature;humidity
37368;BME280;23240;43.210;27.910;2023-03-25T00:02:21;100964.59;;;7.91;100.00
37368;BME280;23240;43.210;27.910;2023-03-25T00:04:50;100964.84;;;7.88;100.00
37368;BME280;23240;43.210;27.910;2023-03-25T00:07:16;100966.31;;;7.92;100.00
37368;BME280;23240;43.210;27.910;2023-03-25T00:09:43;100962.91;;;7.90;100.00
37368;BME280;23240;43.210;27.910;2023-03-25T00:12:08;100962.06;;;7.90;100.00
37368;BME280;23240;43.210;27.910;2023-03-25T00:14:33;100961.38;;;7.86;100.00
37368;BME280;23240;43.210;27.910;2023-03-25T00:16:59;100960.34;;;7.89;100.00
37368;BME280;23240;43.210;27.910;2023-03-25T00:19:25;100959.56;;;7.87;100.00
37368;BME280;23240;43.210;27.910;2023-03-25T00:21:51;100959.56;;;7.87;100.00
37368;BME280;23240;43.210;27.910;2023-03-25T00:24:18;100948.06;;;7.86;100.00
37368;BME280;23240;43.210;27.910;2023-03-25T00:26:44;100953.50;;;7.85;100.00
37368;BME280;23240;43.210;27.910;2023-03-25T00:29:10;100950.28;;;7.80;100.00
37368;BME280;23240;43.210;27.910;2023-03-25T00:31:35;100939.63;;;7.80;100.00
37368;BME280;23240;43.210;27.910;2023-03-25T00:34:01;100943.13;;;7.80;100.00
37368;BME280;23240;43.210;27.910;2023-03-25T00:36:26;100950.06;;;7.83;100.00
37368;BME280;23240;43.210;27.910;2023-03-25T00:38:52;100938.66;;;7.81;100.00
37368;BME280;23240;43.210;27.910;2023-03-25T00:41:20;100937.03;;;7.78;100.00
37368;BME280;23240;43.210;27.910;2023-03-25T00:43:47;100945.91;;;7.79;100.00
37368;BME280;23240;43.210;27.910;2023-03-25T00:46:13;100937.25;;;7.75;100.00
37368;BME280;23240;43.210;27.910;2023-03-25T00:48:38;100938.31;;;7.72;100.00
37368;BME280;23240;43.210;27.910;2023-03-25T00:51:04;100933.75;;;7.75;100.00
37368;BME280;23240;43.210;27.910;2023-03-25T00:53:34;100936.41;;;7.75;100.00
37368;BME280;23240;43.210;27.910;2023-03-25T00:55:59;100928.59;;;7.71;100.00
37368;BME280;23240;43.210;27.910;2023-03-25T00:58:25;100931.28;;;7.71;100.00
37368;BME280;23240;43.210;27.910;2023-03-25T01:00:50;100931.28;;;7.71;100.00
37368;BME280;23240;43.210;27.910;2023-03-25T01:03:16;100927.44;;;7.76;100.00
37368;BME280;23240;43.210;27.910;2023-03-25T01:05:42;100923.06;;;7.75;100.00
37368;BME280;23240;43.210;27.910;2023-03-25T01:08:08;100921.25;;;7.75;100.00
37368;BME280;23240;43.210;27.910;2023-03-25T01:10:36;100920.19;;;7.78;100.00
37368;BME280;23240;43.210;27.910;2023-03-25T01:13:02;100917.00;;;7.85;100.00
37368;BME280;23240;43.210;27.910;2023-03-25T01:15:27;100905.28;;;7.88;100.00
37368;BME280;23240;43.210;27.910;2023-03-25T01:17:53;100895.47;;;7.88;100.00
37368;BME280;23240;43.210;27.910;2023-03-25T01:20:18;100902.59;;;7.88;100.00
37368;BME280;23240;43.210;27.910;2023-03-25T01:22:43;100899.00;;;7.89;100.00
37368;BME280;23240;43.210;27.910;2023-03-25T01:25:09;100901.00;;;7.85;100.00
37368;BME280;23240;43.210;27.910;2023-03-25T01:27:34;100901.13;;;7.84;100.00
37368;BME280;23240;43.210;27.910;2023-03-25T01:30:00;100896.22;;;7.90;100.00
37368;BME280;23240;43.210;27.910;2023-03-25T01:32:27;100888.34;;;7.89;100.00
37368;BME280;23240;43.210;27.910;2023-03-25T01:34:52;100889.91;;;7.91;100.00
37368;BME280;23240;43.210;27.910;2023-03-25T01:37:17;100888.03;;;7.93;100.00
37368;BME280;23240;43.210;27.910;2023-03-25T01:39:43;100891.44;;;7.95;100.00
37368;BME280;23240;43.210;27.910;2023-03-25T01:42:09;100891.00;;;8.02;100.00
37368;BME280;23240;43.210;27.910;2023-03-25T01:47:03;100895.28;;;8.04;100.00
37368;BME280;23240;43.210;27.910;2023-03-25T01:49:34;100887.81;;;8.09;100.00
37368;BME280;23240;43.210;27.910;2023-03-25T01:52:04;100885.88;;;8.11;100.00
37368;BME280;23240;43.210;27.910;2023-03-25T01:54:29;100886.41;;;8.16;100.00
37368;BME280;23240;43.210;27.910;2023-03-25T01:56:55;100880.16;;;8.17;100.00
37368;BME280;23240;43.210;27.910;2023-03-25T01:59:22;100879.19;;;8.18;100.00
37368;BME280;23240;43.210;27.910;2023-03-25T02:01:49;100875.88;;;8.15;100.00
37368;BME280;23240;43.210;27.910;2023-03-25T02:04:15;100879.25;;;8.17;100.00
37368;BME280;23240;43.210;27.910;2023-03-25T02:06:50;100881.84;;;8.18;100.00
37368;BME280;23240;43.210;27.910;2023-03-25T02:09:18;100873.72;;;8.20;100.00
37368;BME280;23240;43.210;27.910;2023-03-25T02:11:45;100876.72;;;8.15;100.00
37368;BME280;23240;43.210;27.910;2023-03-25T02:14:11;100869.03;;;8.11;100.00
37368;BME280;23240;43.210;27.910;2023-03-25T02:22:13;100859.41;;;8.21;100.00
37368;BME280;23240;43.210;27.910;2023-03-25T02:24:57;100854.72;;;8.24;100.00
37368;BME280;23240;43.210;27.910;2023-03-25T02:35:52;100845.34;;;8.32;100.00
37368;BME280;23240;43.210;27.910;2023-03-25T02:38:30;100845.03;;;8.23;100.00
37368;BME280;23240;43.210;27.910;2023-03-25T02:43:33;100840.66;;;8.22;100.00
37368;BME280;23240;43.210;27.910;2023-03-25T02:46:04;100838.91;;;8.21;100.00
37368;BME280;23240;43.210;27.910;2023-03-25T02:48:34;100840.97;;;8.18;100.00
37368;BME280;23240;43.210;27.910;2023-03-25T02:51:04;100832.63;;;8.10;100.00
37368;BME280;23240;43.210;27.910;2023-03-25T02:53:32;100834.66;;;8.06;100.00
37368;BME280;23240;43.210;27.910;2023-03-25T02:56:01;100831.91;;;8.08;100.00
37368;BME280;23240;43.210;27.910;2023-03-25T02:58:27;100824.53;;;8.11;100.00
37368;BME280;23240;43.210;27.910;2023-03-25T03:00:54;100828.91;;;8.12;100.00
37368;BME280;23240;43.210;27.910;2023-03-25T03:03:23;100830.38;;;8.16;100.00
37368;BME280;23240;43.210;27.910;2023-03-25T03:05:49;100821.44;;;8.17;100.00
37368;BME280;23240;43.210;27.910;2023-03-25T03:18:13;100831.47;;;8.39;100.00
37368;BME280;23240;43.210;27.910;2023-03-25T03:20:54;100826.78;;;8.43;100.00
37368;BME280;23240;43.210;27.910;2023-03-25T03:23:27;100813.31;;;8.44;100.00
37368;BME280;23240;43.210;27.910;2023-03-25T03:26:07;100818.66;;;8.44;100.00
37368;BME280;23240;43.210;27.910;2023-03-25T03:28:41;100800.28;;;8.40;100.00
37368;BME280;23240;43.210;27.910;2023-03-25T03:33:49;100801.06;;;8.42;100.00
37368;BME280;23240;43.210;27.910;2023-03-25T03:36:18;100802.88;;;8.41;100.00
37368;BME280;23240;43.210;27.910;2023-03-25T03:38:55;100794.22;;;8.38;100.00
37368;BME280;23240;43.210;27.910;2023-03-25T03:41:22;100804.91;;;8.38;100.00
37368;BME280;23240;43.210;27.910;2023-03-25T03:43:53;100793.97;;;8.41;100.00
37368;BME280;23240;43.210;27.910;2023-03-25T03:48:49;100791.09;;;8.44;100.00
37368;BME280;23240;43.210;27.910;2023-03-25T03:51:23;100794.22;;;8.38;100.00
37368;BME280;23240;43.210;27.910;2023-03-25T03:53:55;100794.75;;;8.43;100.00
37368;BME280;23240;43.210;27.910;2023-03-25T03:56:28;100796.44;;;8.44;100.00
37368;BME280;23240;43.210;27.910;2023-03-25T03:58:56;100803.78;;;8.53;100.00
37368;BME280;23240;43.210;27.910;2023-03-25T04:04:18;100796.44;;;8.57;100.00
37368;BME280;23240;43.210;27.910;2023-03-25T04:07:04;100792.44;;;8.62;100.00
37368;BME280;23240;43.210;27.910;2023-03-25T04:12:25;100800.53;;;8.73;100.00
37368;BME280;23240;43.210;27.910;2023-03-25T04:14:51;100790.59;;;8.75;100.00
37368;BME280;23240;43.210;27.910;2023-03-25T04:17:17;100788.44;;;8.81;100.00
37368;BME280;23240;43.210;27.910;2023-03-25T04:19:42;100797.06;;;8.84;100.00
37368;BME280;23240;43.210;27.910;2023-03-25T04:22:13;100802.81;;;8.91;100.00
37368;BME280;23240;43.210;27.910;2023-03-25T04:24:39;100804.06;;;8.98;100.00
37368;BME280;23240;43.210;27.910;2023-03-25T04:27:05;100802.25;;;8.98;100.00
37368;BME280;23240;43.210;27.910;2023-03-25T04:29:33;100803.97;;;8.99;100.00
37368;BME280;23240;43.210;27.910;2023-03-25T04:31:59;100806.72;;;8.98;100.00
37368;BME280;23240;43.210;27.910;2023-03-25T04:34:25;100798.38;;;9.02;100.00
37368;BME280;23240;43.210;27.910;2023-03-25T04:36:51;100801.06;;;9.02;100.00
37368;BME280;23240;43.210;27.910;2023-03-25T04:39:16;100801.69;;;9.06;100.00
37368;BME280;23240;43.210;27.910;2023-03-25T04:41:42;100809.88;;;9.16;100.00
37368;BME280;23240;43.210;27.910;2023-03-25T04:44:08;100801.50;;;9.20;100.00
37368;BME280;23240;43.210;27.910;2023-03-25T04:46:34;100791.16;;;9.16;100.00
37368;BME280;23240;43.210;27.910;2023-03-25T04:49:00;100790.31;;;9.15;100.00
37368;BME280;23240;43.210;27.910;2023-03-25T04:51:27;100788.03;;;9.22;100.00
37368;BME280;23240;43.210;27.910;2023-03-25T04:53:54;100787.38;;;9.18;100.00
37368;BME280;23240;43.210;27.910;2023-03-25T04:56:19;100781.94;;;9.20;100.00
37368;BME280;23240;43.210;27.910;2023-03-25T04:58:45;100774.91;;;9.19;100.00
37368;BME280;23240;43.210;27.910;2023-03-25T05:01:28;100772.84;;;9.22;100.00
37368;BME280;23240;43.210;27.910;2023-03-25T05:03:56;100785.00;;;9.26;100.00
37368;BME280;23240;43.210;27.910;2023-03-25T05:06:28;100778.97;;;9.36;100.00
37368;BME280;23240;43.210;27.910;2023-03-25T05:08:54;100781.41;;;9.39;100.00
37368;BME280;23240;43.210;27.910;2023-03-25T05:11:19;100786.97;;;9.36;100.00
37368;BME280;23240;43.210;27.910;2023-03-25T05:13:45;100792.19;;;9.37;100.00
37368;BME280;23240;43.210;27.910;2023-03-25T05:16:10;100790.63;;;9.35;100.00
37368;BME280;23240;43.210;27.910;2023-03-25T05:18:35;100786.75;;;9.39;100.00
37368;BME280;23240;43.210;27.910;2023-03-25T05:21:01;100787.47;;;9.41;100.00
37368;BME280;23240;43.210;27.910;2023-03-25T05:23:26;100787.59;;;9.39;100.00
37368;BME280;23240;43.210;27.910;2023-03-25T05:25:52;100789.69;;;9.47;100.00
37368;BME280;23240;43.210;27.910;2023-03-25T05:28:18;100776.72;;;9.53;100.00
37368;BME280;23240;43.210;27.910;2023-03-25T05:30:43;100778.63;;;9.51;100.00
37368;BME280;23240;43.210;27.910;2023-03-25T05:33:12;100777.78;;;9.51;100.00
37368;BME280;23240;43.210;27.910;2023-03-25T05:35:41;100783.53;;;9.58;100.00
37368;BME280;23240;43.210;27.910;2023-03-25T05:38:06;100782.66;;;9.57;100.00
37368;BME280;23240;43.210;27.910;2023-03-25T05:40:32;100783.38;;;9.48;100.00
37368;BME280;23240;43.210;27.910;2023-03-25T05:42:58;100783.13;;;9.51;100.00
37368;BME280;23240;43.210;27.910;2023-03-25T05:45:24;100782.50;;;9.47;100.00
37368;BME280;23240;43.210;27.910;2023-03-25T05:47:51;100783.97;;;9.51;100.00
37368;BME280;23240;43.210;27.910;2023-03-25T05:50:16;100782.66;;;9.57;100.00
37368;BME280;23240;43.210;27.910;2023-03-25T05:52:42;100795.44;;;9.65;100.00
37368;BME280;23240;43.210;27.910;2023-03-25T05:55:14;100797.56;;;9.72;100.00
37368;BME280;23240;43.210;27.910;2023-03-25T05:57:40;100792.44;;;9.69;100.00
37368;BME280;23240;43.210;27.910;2023-03-25T06:00:06;100794.13;;;9.70;100.00
37368;BME280;23240;43.210;27.910;2023-03-25T06:02:32;100790.72;;;9.68;100.00
37368;BME280;23240;43.210;27.910;2023-03-25T06:04:58;100792.44;;;9.69;100.00
37368;BME280;23240;43.210;27.910;2023-03-25T06:07:23;100786.09;;;9.70;100.00
37368;BME280;23240;43.210;27.910;2023-03-25T06:09:49;100778.22;;;9.80;100.00
37368;BME280;23240;43.210;27.910;2023-03-25T06:12:19;100773.38;;;9.96;100.00
37368;BME280;23240;43.210;27.910;2023-03-25T06:14:45;100775.09;;;9.97;100.00
37368;BME280;23240;43.210;27.910;2023-03-25T06:17:11;100764.75;;;10.04;100.00
37368;BME280;23240;43.210;27.910;2023-03-25T06:19:36;100752.19;;;10.04;100.00
37368;BME280;23240;43.210;27.910;2023-03-25T06:22:05;100755.50;;;9.97;100.00
37368;BME280;23240;43.210;27.910;2023-03-25T06:24:36;100753.81;;;10.07;100.00
37368;BME280;23240;43.210;27.910;2023-03-25T06:27:02;100769.38;;;10.13;100.00
37368;BME280;23240;43.210;27.910;2023-03-25T06:29:28;100767.06;;;10.09;100.00
37368;BME280;23240;43.210;27.910;2023-03-25T06:31:53;100760.00;;;10.19;100.00
37368;BME280;23240;43.210;27.910;2023-03-25T06:34:19;100768.41;;;10.48;100.00
37368;BME280;23240;43.210;27.910;2023-03-25T06:36:44;100760.22;;;10.61;100.00
37368;BME280;23240;43.210;27.910;2023-03-25T06:39:14;100754.81;;;10.83;100.00
37368;BME280;23240;43.210;27.910;2023-03-25T06:41:39;100747.34;;;10.98;100.00
37368;BME280;23240;43.210;27.910;2023-03-25T06:44:04;100751.44;;;11.34;100.00
37368;BME280;23240;43.210;27.910;2023-03-25T06:46:30;100742.47;;;11.87;100.00
37368;BME280;23240;43.210;27.910;2023-03-25T06:48:55;100739.16;;;12.44;100.00
37368;BME280;23240;43.210;27.910;2023-03-25T06:51:21;100738.88;;;12.47;100.00
37368;BME280;23240;43.210;27.910;2023-03-25T06:53:47;100741.91;;;12.64;100.00
37368;BME280;23240;43.210;27.910;2023-03-25T06:56:13;100745.31;;;12.75;100.00
37368;BME280;23240;43.210;27.910;2023-03-25T06:58:38;100752.06;;;12.60;100.00
37368;BME280;23240;43.210;27.910;2023-03-25T07:01:05;100757.13;;;12.44;100.00
37368;BME280;23240;43.210;27.910;2023-03-25T07:03:31;100759.69;;;12.55;100.00
37368;BME280;23240;43.210;27.910;2023-03-25T07:05:57;100757.47;;;12.79;100.00
37368;BME280;23240;43.210;27.910;2023-03-25T07:08:22;100756.13;;;13.33;100.00
37368;BME280;23240;43.210;27.910;2023-03-25T07:10:48;100764.78;;;14.03;100.00
37368;BME280;23240;43.210;27.910;2023-03-25T07:13:13;100760.00;;;14.25;100.00
37368;BME280;23240;43.210;27.910;2023-03-25T07:15:39;100766.75;;;14.38;100.00
37368;BME280;23240;43.210;27.910;2023-03-25T07:18:04;100763.28;;;14.56;100.00
37368;BME280;23240;43.210;27.910;2023-03-25T07:20:30;100758.25;;;13.96;100.00
37368;BME280;23240;43.210;27.910;2023-03-25T07:22:55;100760.91;;;13.59;100.00
37368;BME280;23240;43.210;27.910;2023-03-25T07:25:20;100753.13;;;12.88;100.00
37368;BME280;23240;43.210;27.910;2023-03-25T07:27:46;100753.91;;;12.09;100.00
37368;BME280;23240;43.210;27.910;2023-03-25T07:30:11;100758.69;;;11.43;100.00
37368;BME280;23240;43.210;27.910;2023-03-25T07:32:37;100758.16;;;11.28;100.00
37368;BME280;23240;43.210;27.910;2023-03-25T07:35:02;100756.56;;;11.05;100.00
37368;BME280;23240;43.210;27.910;2023-03-25T07:37:28;100748.22;;;10.87;100.00
37368;BME280;23240;43.210;27.910;2023-03-25T07:39:53;100756.81;;;11.02;100.00
37368;BME280;23240;43.210;27.910;2023-03-25T07:42:18;100757.69;;;11.02;100.00
37368;BME280;23240;43.210;27.910;2023-03-25T07:44:44;100758.69;;;10.90;100.00
37368;BME280;23240;43.210;27.910;2023-03-25T07:47:09;100773.22;;;10.76;100.00
37368;BME280;23240;43.210;27.910;2023-03-25T07:49:35;100771.34;;;10.45;100.00
37368;BME280;23240;43.210;27.910;2023-03-25T07:52:00;100777.41;;;10.13;100.00
37368;BME280;23240;43.210;27.910;2023-03-25T07:54:25;100779.81;;;9.94;100.00
37368;BME280;23240;43.210;27.910;2023-03-25T07:56:51;100774.81;;;9.89;100.00
37368;BME280;23240;43.210;27.910;2023-03-25T07:59:19;100787.34;;;9.77;100.00
37368;BME280;23240;43.210;27.910;2023-03-25T08:01:44;100774.91;;;9.65;100.00
37368;BME280;23240;43.210;27.910;2023-03-25T08:04:10;100774.88;;;9.54;100.00
37368;BME280;23240;43.210;27.910;2023-03-25T08:06:37;100779.75;;;9.60;100.00
37368;BME280;23240;43.210;27.910;2023-03-25T08:09:03;100772.38;;;9.64;100.00
37368;BME280;23240;43.210;27.910;2023-03-25T08:11:28;100777.34;;;9.68;100.00
37368;BME280;23240;43.210;27.910;2023-03-25T08:13:53;100769.69;;;9.75;100.00
37368;BME280;23240;43.210;27.910;2023-03-25T08:16:19;100767.41;;;9.82;100.00
37368;BME280;23240;43.210;27.910;2023-03-25T08:18:44;100768.13;;;9.95;100.00
37368;BME280;23240;43.210;27.910;2023-03-25T08:21:10;100753.06;;;10.16;100.00
37368;BME280;23240;43.210;27.910;2023-03-25T08:23:36;100755.84;;;10.03;100.00
37368;BME280;23240;43.210;27.910;2023-03-25T08:26:02;100750.63;;;10.13;100.00
37368;BME280;23240;43.210;27.910;2023-03-25T08:28:29;100748.91;;;10.23;100.00
37368;BME280;23240;43.210;27.910;2023-03-25T08:30:54;100749.53;;;10.38;100.00
37368;BME280;23240;43.210;27.910;2023-03-25T08:33:20;100735.22;;;10.71;100.00
37368;BME280;23240;43.210;27.910;2023-03-25T08:35:46;100735.97;;;10.73;100.00
37368;BME280;23240;43.210;27.910;2023-03-25T08:38:11;100730.72;;;10.72;100.00
37368;BME280;23240;43.210;27.910;2023-03-25T08:40:37;100727.88;;;10.85;100.00
37368;BME280;23240;43.210;27.910;2023-03-25T08:43:04;100728.38;;;11.11;100.00
37368;BME280;23240;43.210;27.910;2023-03-25T08:45:30;100731.34;;;11.07;100.00
37368;BME280;23240;43.210;27.910;2023-03-25T08:47:59;100738.94;;;11.23;100.00
37368;BME280;23240;43.210;27.910;2023-03-25T08:50:25;100734.09;;;11.17;100.00
37368;BME280;23240;43.210;27.910;2023-03-25T08:52:51;100737.56;;;11.29;100.00
37368;BME280;23240;43.210;27.910;2023-03-25T08:55:18;100722.44;;;11.49;100.00
37368;BME280;23240;43.210;27.910;2023-03-25T08:57:44;100728.53;;;11.72;100.00
37368;BME280;23240;43.210;27.910;2023-03-25T09:00:09;100727.38;;;11.74;100.00
37368;BME280;23240;43.210;27.910;2023-03-25T09:02:38;100718.94;;;11.79;100.00
37368;BME280;23240;43.210;27.910;2023-03-25T09:05:03;100722.28;;;11.92;100.00
37368;BME280;23240;43.210;27.910;2023-03-25T09:07:29;100715.56;;;12.07;100.00
37368;BME280;23240;43.210;27.910;2023-03-25T09:09:55;100709.91;;;12.01;100.00
37368;BME280;23240;43.210;27.910;2023-03-25T09:12:20;100707.72;;;11.85;100.00
37368;BME280;23240;43.210;27.910;2023-03-25T09:14:45;100708.19;;;11.79;100.00
37368;BME280;23240;43.210;27.910;2023-03-25T09:17:11;100714.53;;;11.47;100.00
37368;BME280;23240;43.210;27.910;2023-03-25T09:19:36;100710.72;;;11.71;100.00
37368;BME280;23240;43.210;27.910;2023-03-25T09:22:02;100708.81;;;11.82;100.00
37368;BME280;23240;43.210;27.910;2023-03-25T09:24:28;100705.81;;;11.76;100.00
37368;BME280;23240;43.210;27.910;2023-03-25T09:26:53;100705.69;;;12.08;100.00
37368;BME280;23240;43.210;27.910;2023-03-25T09:29:18;100707.47;;;11.98;100.00
37368;BME280;23240;43.210;27.910;2023-03-25T09:31:44;100702.47;;;11.83;100.00
37368;BME280;23240;43.210;27.910;2023-03-25T09:34:09;100703.47;;;11.82;100.00
37368;BME280;23240;43.210;27.910;2023-03-25T09:36:35;100695.50;;;12.02;100.00
37368;BME280;23240;43.210;27.910;2023-03-25T09:39:02;100695.06;;;11.97;100.00
37368;BME280;23240;43.210;27.910;2023-03-25T09:46:21;100687.88;;;11.76;100.00
37368;BME280;23240;43.210;27.910;2023-03-25T09:48:47;100689.91;;;11.84;100.00
37368;BME280;23240;43.210;27.910;2023-03-25T09:51:14;100681.72;;;11.86;100.00
37368;BME280;23240;43.210;27.910;2023-03-25T09:53:48;100683.91;;;12.01;100.00
37368;BME280;23240;43.210;27.910;2023-03-25T09:56:24;100680.66;;;12.07;100.00
37368;BME280;23240;43.210;27.910;2023-03-25T09:58:56;100682.03;;;11.92;100.00
37368;BME280;23240;43.210;27.910;2023-03-25T10:06:31;100678.63;;;11.39;100.00
37368;BME280;23240;43.210;27.910;2023-03-25T10:09:21;100673.00;;;11.00;100.00
37368;BME280;23240;43.210;27.910;2023-03-25T10:11:56;100678.22;;;10.80;100.00
37368;BME280;23240;43.210;27.910;2023-03-25T10:24:25;100654.16;;;10.90;100.00
37368;BME280;23240;43.210;27.910;2023-03-25T10:26:54;100647.28;;;10.76;100.00
37368;BME280;23240;43.210;27.910;2023-03-25T10:29:25;100649.03;;;10.66;100.00
37368;BME280;23240;43.210;27.910;2023-03-25T10:31:54;100643.16;;;10.72;100.00
37368;BME280;23240;43.210;27.910;2023-03-25T10:34:22;100634.81;;;10.87;100.00
37368;BME280;23240;43.210;27.910;2023-03-25T10:39:18;100630.56;;;11.05;100.00
37368;BME280;23240;43.210;27.910;2023-03-25T10:41:45;100626.19;;;11.04;100.00
37368;BME280;23240;43.210;27.910;2023-03-25T10:44:11;100620.19;;;10.91;100.00
37368;BME280;23240;43.210;27.910;2023-03-25T10:49:03;100605.28;;;10.98;100.00
37368;BME280;23240;43.210;27.910;2023-03-25T10:51:29;100598.59;;;11.13;100.00
37368;BME280;23240;43.210;27.910;2023-03-25T10:53:56;100600.44;;;11.43;100.00
37368;BME280;23240;43.210;27.910;2023-03-25T10:56:23;100600.84;;;11.39;100.00
37368;BME280;23240;43.210;27.910;2023-03-25T10:58:51;100596.13;;;11.52;100.00
37368;BME280;23240;43.210;27.910;2023-03-25T11:01:17;100592.09;;;11.37;100.00
37368;BME280;23240;43.210;27.910;2023-03-25T11:03:44;100590.72;;;11.21;100.00
37368;BME280;23240;43.210;27.910;2023-03-25T11:06:32;100586.13;;;11.02;100.00
37368;BME280;23240;43.210;27.910;2023-03-25T11:09:12;100578.56;;;11.07;100.00
37368;BME280;23240;43.210;27.910;2023-03-25T11:11:39;100576.91;;;10.95;100.00
37368;BME280;23240;43.210;27.910;2023-03-25T11:14:05;100573.25;;;11.17;100.00
37368;BME280;23240;43.210;27.910;2023-03-25T11:16:32;100566.66;;;11.31;100.00
37368;BME280;23240;43.210;27.910;2023-03-25T11:19:01;100561.25;;;11.52;100.00
37368;BME280;23240;43.210;27.910;2023-03-25T11:21:34;100557.78;;;11.71;100.00
37368;BME280;23240;43.210;27.910;2023-03-25T11:24:00;100563.59;;;11.76;100.00
37368;BME280;23240;43.210;27.910;2023-03-25T11:26:35;100565.41;;;11.66;100.00
37368;BME280;23240;43.210;27.910;2023-03-25T11:31:27;100549.16;;;11.67;100.00
37368;BME280;23240;43.210;27.910;2023-03-25T11:36:29;100542.66;;;11.79;100.00
37368;BME280;23240;43.210;27.910;2023-03-25T11:38:56;100538.78;;;11.93;100.00
37368;BME280;23240;43.210;27.910;2023-03-25T11:41:22;100532.88;;;11.99;100.00
37368;BME280;23240;43.210;27.910;2023-03-25T11:43:48;100536.00;;;12.14;100.00
37368;BME280;23240;43.210;27.910;2023-03-25T11:46:15;100533.44;;;12.22;100.00
37368;BME280;23240;43.210;27.910;2023-03-25T11:48:41;100531.63;;;11.63;100.00
37368;BME280;23240;43.210;27.910;2023-03-25T11:51:14;100529.41;;;11.07;100.00
37368;BME280;23240;43.210;27.910;2023-03-25T11:53:47;100522.16;;;10.67;100.00
37368;BME280;23240;43.210;27.910;2023-03-25T11:56:19;100527.06;;;10.41;100.00
37368;BME280;23240;43.210;27.910;2023-03-25T11:58:46;100518.81;;;10.33;100.00
37368;BME280;23240;43.210;27.910;2023-03-25T12:01:23;100513.88;;;10.49;100.00
37368;BME280;23240;43.210;27.910;2023-03-25T12:03:49;100516.78;;;10.67;100.00
37368;BME280;23240;43.210;27.910;2023-03-25T12:06:19;100506.19;;;10.87;100.00
37368;BME280;23240;43.210;27.910;2023-03-25T12:08:49;100509.78;;;10.97;100.00
37368;BME280;23240;43.210;27.910;2023-03-25T12:11:50;100509.75;;;10.66;100.00
37368;BME280;23240;43.210;27.910;2023-03-25T12:14:29;100508.84;;;10.56;100.00
37368;BME280;23240;43.210;27.910;2023-03-25T12:17:07;100512.09;;;10.80;100.00
37368;BME280;23240;43.210;27.910;2023-03-25T12:29:59;100502.69;;;11.26;100.00
37368;BME280;23240;43.210;27.910;2023-03-25T12:48:02;100480.47;;;10.74;100.00
37368;BME280;23240;43.210;27.910;2023-03-25T12:50:46;100475.38;;;11.02;100.00
37368;BME280;23240;43.210;27.910;2023-03-25T13:08:17;100466.44;;;10.61;100.00
37368;BME280;23240;43.210;27.910;2023-03-25T13:10:46;100465.63;;;10.40;100.00
37368;BME280;23240;43.210;27.910;2023-03-25T13:13:20;100465.88;;;10.37;100.00
37368;BME280;23240;43.210;27.910;2023-03-25T13:15:49;100463.25;;;10.46;100.00
37368;BME280;23240;43.210;27.910;2023-03-25T13:23:29;100459.94;;;10.54;100.00
37368;BME280;23240;43.210;27.910;2023-03-25T13:26:16;100454.56;;;10.33;100.00
37368;BME280;23240;43.210;27.910;2023-03-25T13:31:09;100449.66;;;10.38;100.00
37368;BME280;23240;43.210;27.910;2023-03-25T13:33:39;100448.59;;;10.29;100.00
37368;BME280;23240;43.210;27.910;2023-03-25T13:38:37;100447.66;;;10.19;100.00
37368;BME280;23240;43.210;27.910;2023-03-25T13:41:09;100455.50;;;10.11;100.00
37368;BME280;23240;43.210;27.910;2023-03-25T13:46:15;100448.03;;;9.94;100.00
37368;BME280;23240;43.210;27.910;2023-03-25T13:51:14;100442.47;;;9.86;100.00
37368;BME280;23240;43.210;27.910;2023-03-25T13:54:20;100439.78;;;9.86;100.00
37368;BME280;23240;43.210;27.910;2023-03-25T13:56:32;100440.72;;;9.96;100.00
37368;BME280;23240;43.210;27.910;2023-03-25T14:07:07;100415.16;;;10.03;100.00
37368;BME280;23240;43.210;27.910;2023-03-25T14:12:12;100426.22;;;9.77;100.00
37368;BME280;23240;43.210;27.910;2023-03-25T14:14:41;100424.91;;;9.72;100.00
37368;BME280;23240;43.210;27.910;2023-03-25T14:17:08;100418.22;;;9.66;100.00
37368;BME280;23240;43.210;27.910;2023-03-25T14:19:35;100413.47;;;9.70;100.00
37368;BME280;23240;43.210;27.910;2023-03-25T14:22:05;100411.19;;;9.65;100.00
37368;BME280;23240;43.210;27.910;2023-03-25T14:24:35;100407.22;;;9.81;100.00
37368;BME280;23240;43.210;27.910;2023-03-25T14:27:04;100399.03;;;9.93;100.00
37368;BME280;23240;43.210;27.910;2023-03-25T14:32:23;100398.97;;;10.04;100.00
37368;BME280;23240;43.210;27.910;2023-03-25T14:34:44;100399.31;;;10.11;100.00
37368;BME280;23240;43.210;27.910;2023-03-25T14:39:45;100388.41;;;10.03;100.00
37368;BME280;23240;43.210;27.910;2023-03-25T14:42:21;100383.56;;;9.97;100.00
37368;BME280;23240;43.210;27.910;2023-03-25T14:44:48;100392.31;;;9.99;100.00
37368;BME280;23240;43.210;27.910;2023-03-25T14:52:14;100380.84;;;9.87;100.00
37368;BME280;23240;43.210;27.910;2023-03-25T14:54:41;100385.06;;;9.90;100.00
37368;BME280;23240;43.210;27.910;2023-03-25T14:57:14;100395.97;;;9.98;100.00
37368;BME280;23240;43.210;27.910;2023-03-25T14:59:45;100383.56;;;9.97;100.00
37368;BME280;23240;43.210;27.910;2023-03-25T15:02:14;100388.66;;;10.00;100.00
37368;BME280;23240;43.210;27.910;2023-03-25T15:04:41;100388.72;;;9.89;100.00
37368;BME280;23240;43.210;27.910;2023-03-25T15:07:08;100392.53;;;9.75;100.00